Time;durP1;ratioP1;P1;durP2;ratioP2;P2;SDS_P1;SDS_P2;PMS_P1;PMS_P2;Temp;Humidity;BMP_temperature;BMP_pressure;BME280_temperature;BME280_humidity;BME280_pressure;Samples;Min_cycle;Max_cycle;Signal;HPM_P1;HPM_P2
2022/09/04 00:00:17;;;;;;;;;;;;;;;;;;4952465;28;1320;-75
2022/09/04 00:02:56;;;;;;;;;;;;;;;;;;4942246;28;1591;-74
2022/09/04 00:05:24;;;;;;;;;;;;;;;;;;4955407;28;1155;-74
2022/09/04 00:07:55;;;;;;;;;;;;;;;;;;4955461;28;1981;-74
2022/09/04 00:10:22;;;;;;;;;;;;;;;;;;4972506;28;1316;-72
2022/09/04 00:12:49;;;;;;;;;;;;;;;;;;4955269;28;1179;-74
2022/09/04 00:15:18;;;;;;;;;;;;;;;;;;4972667;28;1072;-73
2022/09/04 00:17:44;;;;;;;;;;;;;;;;;;4972579;28;779;-75
2022/09/04 00:20:13;;;;;;;;;;;;;;;;;;4972378;28;1418;-74
2022/09/04 00:22:41;;;;;;;;;;;;;;;;;;4972128;28;933;-74
2022/09/04 00:25:10;;;;;;;;;;;;;;;;;;4972489;28;957;-74
2022/09/04 00:27:43;;;;;;;;;;;;;;;;;;4972106;28;1911;-74
2022/09/04 00:30:10;;;;;;;;;;;;;;;;;;4955169;28;1403;-75
2022/09/04 00:32:38;;;;;;;;;;;;;;;;;;4954614;28;1311;-74
2022/09/04 00:35:06;;;;;;;;;;;;;;;;;;4955127;28;1143;-75
2022/09/04 00:37:34;;;;;;;;;;;;;;;;;;4972482;28;988;-74
2022/09/04 00:40:01;;;;;;;;;;;;;;;;;;4955275;28;1329;-75
2022/09/04 00:42:37;;;;;;;;;;;;;;;;;;4971908;28;1078;-74
2022/09/04 00:45:07;;;;;;;;;;;;;;;;;;4955103;28;1161;-74
2022/09/04 00:47:50;;;;;;;;;;;;;;;;;;4965675;28;2233;-74
2022/09/04 00:50:32;;;;;;;;;;;;;;;;;;4947651;28;1324;-75
2022/09/04 00:53:04;;;;;;;;;;;;;;;;;;4955324;28;1187;-75
2022/09/04 00:55:36;;;;;;;;;;;;;;;;;;4972277;28;949;-74
2022/09/04 00:58:15;;;;;;;;;;;;;;;;;;4971826;28;938;-75
2022/09/04 01:00:42;;;;;;;;;;;;;;;;;;4954590;28;1294;-75
2022/09/04 01:03:15;;;;;;;;;;;;;;;;;;4971403;28;1087;-74
2022/09/04 01:05:44;;;;;;;;;;;;;;;;;;4971890;28;1463;-75
2022/09/04 01:08:15;;;;;;;;;;;;;;;;;;4971844;28;1914;-75
2022/09/04 01:10:44;;;;;;;;;;;;;;;;;;4970712;28;1352;-74
2022/09/04 01:13:11;;;;;;;;;;;;;;;;;;4971536;28;1130;-75
2022/09/04 01:15:40;;;;;;;;;;;;;;;;;;4954652;28;1139;-74
2022/09/04 01:18:07;;;;;;;;;;;;;;;;;;4971687;28;1131;-74
2022/09/04 01:20:45;;;;;;;;;;;;;;;;;;4954450;28;1398;-75
2022/09/04 01:23:24;;;;;;;;;;;;;;;;;;4971276;28;1072;-74
2022/09/04 01:25:54;;;;;;;;;;;;;;;;;;4971755;28;1060;-74
2022/09/04 01:28:21;;;;;;;;;;;;;;;;;;4969717;28;1976;-75
2022/09/04 01:30:49;;;;;;;;;;;;;;;;;;4952243;28;1568;-74
2022/09/04 01:33:15;;;;;;;;;;;;;;;;;;4951850;29;1116;-74
2022/09/04 01:35:43;;;;;;;;;;;;;;;;;;4952474;29;1011;-74
2022/09/04 01:38:11;;;;;;;;;;;;;;;;;;4952305;28;1080;-74
2022/09/04 01:40:38;;;;;;;;;;;;;;;;;;4952159;28;1327;-74
2022/09/04 01:43:09;;;;;;;;;;;;;;;;;;4952097;28;1048;-74
2022/09/04 01:45:48;;;;;;;;;;;;;;;;;;4952159;29;1083;-73
2022/09/04 01:48:16;;;;;;;;;;;;;;;;;;4951732;29;1906;-74
2022/09/04 01:50:43;;;;;;;;;;;;;;;;;;4952139;28;1411;-74
2022/09/04 01:53:10;;;;;;;;;;;;;;;;;;4951733;28;1129;-76
2022/09/04 01:55:37;;;;;;;;;;;;;;;;;;4951876;29;1076;-75
2022/09/04 01:58:09;;;;;;;;;;;;;;;;;;4951996;28;1076;-74
2022/09/04 02:00:37;;;;;;;;;;;;;;;;;;4951817;28;1440;-74
2022/09/04 02:03:04;;;;;;;;;;;;;;;;;;4951584;28;1056;-75
2022/09/04 02:05:32;;;;;;;;;;;;;;;;;;4950558;29;1072;-74
2022/09/04 02:08:01;;;;;;;;;;;;;;;;;;4951443;29;1911;-74
2022/09/04 02:10:30;;;;;;;;;;;;;;;;;;4949735;28;1324;-74
2022/09/04 02:12:58;;;;;;;;;;;;;;;;;;4951147;28;1123;-74
2022/09/04 02:15:32;;;;;;;;;;;;;;;;;;4934396;28;1025;-74
2022/09/04 02:18:01;;;;;;;;;;;;;;;;;;4951358;29;1143;-75
2022/09/04 02:20:28;;;;;;;;;;;;;;;;;;4951137;28;1385;-74
2022/09/04 02:22:56;;;;;;;;;;;;;;;;;;4933725;29;1248;-74
2022/09/04 02:25:25;;;;;;;;;;;;;;;;;;4934390;28;1199;-74
2022/09/04 02:27:54;;;;;;;;;;;;;;;;;;4951557;28;1977;-74
2022/09/04 02:30:21;;;;;;;;;;;;;;;;;;4951329;28;1312;-74
2022/09/04 02:32:52;;;;;;;;;;;;;;;;;;4951210;28;1032;-75
2022/09/04 02:35:20;;;;;;;;;;;;;;;;;;4951275;29;933;-75
2022/09/04 02:37:50;;;;;;;;;;;;;;;;;;4951500;29;1127;-75
2022/09/04 02:40:17;;;;;;;;;;;;;;;;;;4934124;28;1395;-73
2022/09/04 02:42:45;;;;;;;;;;;;;;;;;;4950930;29;1064;-74
2022/09/04 02:45:15;;;;;;;;;;;;;;;;;;4951132;29;1376;-75
2022/09/04 02:47:44;;;;;;;;;;;;;;;;;;4956747;28;1972;-75
2022/09/04 02:50:14;;;;;;;;;;;;;;;;;;4970152;28;1316;-74
2022/09/04 02:52:52;;;;;;;;;;;;;;;;;;4952802;28;1205;-74
2022/09/04 02:55:22;;;;;;;;;;;;;;;;;;4970300;28;933;-73
2022/09/04 02:57:53;;;;;;;;;;;;;;;;;;4953143;28;1052;-75
2022/09/04 03:00:25;;;;;;;;;;;;;;;;;;4969895;28;1379;-74
2022/09/04 03:02:52;;;;;;;;;;;;;;;;;;4970086;28;1075;-74
2022/09/04 03:05:20;;;;;;;;;;;;;;;;;;4970089;28;981;-74
2022/09/04 03:07:49;;;;;;;;;;;;;;;;;;4970280;28;1990;-74
2022/09/04 03:10:16;;;;;;;;;;;;;;;;;;4969973;28;1293;-75
2022/09/04 03:12:44;;;;;;;;;;;;;;;;;;4969666;28;1100;-74
2022/09/04 03:15:13;;;;;;;;;;;;;;;;;;4952885;28;1215;-74
2022/09/04 03:17:41;;;;;;;;;;;;;;;;;;4957772;28;1573;-74
2022/09/04 03:20:09;;;;;;;;;;;;;;;;;;4950640;28;1419;-74
2022/09/04 03:22:39;;;;;;;;;;;;;;;;;;4950331;29;969;-74
2022/09/04 03:25:09;;;;;;;;;;;;;;;;;;4950341;29;1496;-74
2022/09/04 03:27:35;;;;;;;;;;;;;;;;;;4950583;29;1920;-74
2022/09/04 03:30:03;;;;;;;;;;;;;;;;;;4950524;28;1291;-74
2022/09/04 03:32:32;;;;;;;;;;;;;;;;;;4950125;29;1064;-74
2022/09/04 03:35:00;;;;;;;;;;;;;;;;;;4933054;28;1225;-74
2022/09/04 03:37:41;;;;;;;;;;;;;;;;;;4950535;29;992;-74
2022/09/04 03:40:13;;;;;;;;;;;;;;;;;;4951518;28;1398;-75
2022/09/04 03:42:43;;;;;;;;;;;;;;;;;;4950094;29;1123;-74
2022/09/04 03:45:12;;;;;;;;;;;;;;;;;;4950509;29;1089;-74
2022/09/04 03:47:40;;;;;;;;;;;;;;;;;;4938316;28;1862;-74
2022/09/04 03:50:10;;;;;;;;;;;;;;;;;;4969442;28;1977;-75
2022/09/04 03:52:39;;;;;;;;;;;;;;;;;;4952009;28;1212;-74
2022/09/04 03:55:10;;;;;;;;;;;;;;;;;;4969437;28;992;-74
2022/09/04 03:57:42;;;;;;;;;;;;;;;;;;4969593;28;1127;-73
2022/09/04 04:00:09;;;;;;;;;;;;;;;;;;4951957;28;1395;-74
2022/09/04 04:02:46;;;;;;;;;;;;;;;;;;4969073;28;948;-75
2022/09/04 04:05:35;;;;;;;;;;;;;;;;;;4969857;28;988;-73
2022/09/04 04:08:04;;;;;;;;;;;;;;;;;;4963932;28;1978;-74
2022/09/04 04:10:32;;;;;;;;;;;;;;;;;;4951955;28;1317;-74
2022/09/04 04:13:18;;;;;;;;;;;;;;;;;;4949669;28;1987;-74
2022/09/04 04:15:50;;;;;;;;;;;;;;;;;;4949917;29;1146;-75
2022/09/04 04:18:37;;;;;;;;;;;;;;;;;;4949969;29;1107;-75
2022/09/04 04:21:05;;;;;;;;;;;;;;;;;;4946960;28;1979;-74
2022/09/04 04:23:45;;;;;;;;;;;;;;;;;;4949676;29;1056;-73
2022/09/04 04:26:13;;;;;;;;;;;;;;;;;;4949897;29;1092;-75
2022/09/04 04:28:46;;;;;;;;;;;;;;;;;;4950017;29;1975;-74
2022/09/04 04:31:14;;;;;;;;;;;;;;;;;;4949593;28;1419;-73
2022/09/04 04:33:43;;;;;;;;;;;;;;;;;;4949628;29;1131;-74
2022/09/04 04:36:14;;;;;;;;;;;;;;;;;;4932504;29;1167;-74
2022/09/04 04:38:44;;;;;;;;;;;;;;;;;;4949792;29;1083;-75
2022/09/04 04:41:31;;;;;;;;;;;;;;;;;;4949574;28;1356;-76
2022/09/04 04:44:02;;;;;;;;;;;;;;;;;;4949866;28;1024;-75
2022/09/04 04:46:33;;;;;;;;;;;;;;;;;;4950869;28;910;-74
2022/09/04 04:49:11;;;;;;;;;;;;;;;;;;4935599;28;1918;-74
2022/09/04 04:51:50;;;;;;;;;;;;;;;;;;4952449;28;1266;-75
2022/09/04 04:54:23;;;;;;;;;;;;;;;;;;4952634;29;1080;-74
2022/09/04 04:56:50;;;;;;;;;;;;;;;;;;4935683;29;1123;-74
2022/09/04 04:59:20;;;;;;;;;;;;;;;;;;4952719;29;991;-74
2022/09/04 05:01:49;;;;;;;;;;;;;;;;;;4952016;28;1471;-74
2022/09/04 05:04:17;;;;;;;;;;;;;;;;;;4935652;28;1306;-75
2022/09/04 05:06:45;;;;;;;;;;;;;;;;;;4952759;29;1128;-74
2022/09/04 05:09:13;;;;;;;;;;;;;;;;;;4952635;29;1969;-74
2022/09/04 05:11:41;;;;;;;;;;;;;;;;;;4952088;28;1281;-75
2022/09/04 05:14:10;;;;;;;;;;;;;;;;;;4952709;29;1076;-75
2022/09/04 05:16:41;;;;;;;;;;;;;;;;;;4952491;29;1068;-74
2022/09/04 05:19:11;;;;;;;;;;;;;;;;;;4952706;29;941;-74
2022/09/04 05:21:37;;;;;;;;;;;;;;;;;;4952110;28;1359;-74
2022/09/04 05:24:04;;;;;;;;;;;;;;;;;;4952478;29;1068;-74
2022/09/04 05:26:33;;;;;;;;;;;;;;;;;;4952400;29;1092;-74
2022/09/04 05:29:01;;;;;;;;;;;;;;;;;;4950546;29;1915;-74
2022/09/04 05:31:30;;;;;;;;;;;;;;;;;;4952075;28;1400;-74
2022/09/04 05:33:58;;;;;;;;;;;;;;;;;;4953928;29;1063;-74
2022/09/04 05:36:27;;;;;;;;;;;;;;;;;;4951064;29;1630;-74
2022/09/04 05:38:55;;;;;;;;;;;;;;;;;;4952074;29;1099;-75
2022/09/04 05:41:25;;;;;;;;;;;;;;;;;;4951807;28;1312;-74
2022/09/04 05:43:56;;;;;;;;;;;;;;;;;;4952231;29;1028;-75
2022/09/04 05:46:26;;;;;;;;;;;;;;;;;;4952153;29;1060;-74
2022/09/04 05:48:55;;;;;;;;;;;;;;;;;;4952183;29;1907;-75
2022/09/04 05:51:29;;;;;;;;;;;;;;;;;;4951467;28;1285;-74
2022/09/04 05:54:11;;;;;;;;;;;;;;;;;;4952003;29;1147;-75
2022/09/04 05:56:56;;;;;;;;;;;;;;;;;;4951342;28;1001;-75
2022/09/04 05:59:26;;;;;;;;;;;;;;;;;;4951463;29;1381;-75
2022/09/04 06:01:57;;;;;;;;;;;;;;;;;;4951629;28;1412;-75
2022/09/04 06:04:29;;;;;;;;;;;;;;;;;;4934832;29;1128;-75
2022/09/04 06:06:58;;;;;;;;;;;;;;;;;;4951753;29;885;-75
2022/09/04 06:09:28;;;;;;;;;;;;;;;;;;4951556;29;1927;-75
2022/09/04 06:11:59;;;;;;;;;;;;;;;;;;4951379;28;1350;-75
2022/09/04 06:14:32;;;;;;;;;;;;;;;;;;4951624;29;957;-75
2022/09/04 06:17:02;;;;;;;;;;;;;;;;;;4934625;28;1160;-75
2022/09/04 06:19:36;;;;;;;;;;;;;;;;;;4951558;29;1107;-74
2022/09/04 06:22:07;;;;;;;;;;;;;;;;;;4951186;28;1320;-75
2022/09/04 06:24:43;;;;;;;;;;;;;;;;;;4951342;29;1134;-75
2022/09/04 06:27:12;;;;;;;;;;;;;;;;;;4951449;29;965;-75
2022/09/04 06:29:42;;;;;;;;;;;;;;;;;;4951520;29;1915;-75
2022/09/04 06:32:12;;;;;;;;;;;;;;;;;;4950795;28;1314;-75
2022/09/04 06:34:43;;;;;;;;;;;;;;;;;;4951495;29;775;-75
2022/09/04 06:37:14;;;;;;;;;;;;;;;;;;4951234;29;961;-75
2022/09/04 06:39:44;;;;;;;;;;;;;;;;;;4951441;29;1080;-75
2022/09/04 06:42:18;;;;;;;;;;;;;;;;;;4950926;28;1294;-75
2022/09/04 06:44:47;;;;;;;;;;;;;;;;;;4951378;28;804;-75
2022/09/04 06:47:16;;;;;;;;;;;;;;;;;;4951212;29;829;-75
2022/09/04 06:49:45;;;;;;;;;;;;;;;;;;4933976;28;1982;-75
2022/09/04 06:52:14;;;;;;;;;;;;;;;;;;4950639;28;1262;-75
2022/09/04 06:54:44;;;;;;;;;;;;;;;;;;4950910;29;1138;-75
2022/09/04 06:57:16;;;;;;;;;;;;;;;;;;4951084;29;1060;-75
2022/09/04 06:59:48;;;;;;;;;;;;;;;;;;4951023;29;918;-75
2022/09/04 07:02:18;;;;;;;;;;;;;;;;;;4950288;28;1290;-75
2022/09/04 07:04:46;;;;;;;;;;;;;;;;;;4933766;29;1304;-75
2022/09/04 07:07:16;;;;;;;;;;;;;;;;;;4933709;29;836;-76
2022/09/04 07:09:43;;;;;;;;;;;;;;;;;;4949977;29;1971;-75
2022/09/04 07:12:17;;;;;;;;;;;;;;;;;;4950613;28;1374;-75
2022/09/04 07:14:48;;;;;;;;;;;;;;;;;;4950782;28;1064;-76
2022/09/04 07:17:14;;;;;;;;;;;;;;;;;;4950748;29;1063;-75
2022/09/04 07:19:51;;;;;;;;;;;;;;;;;;4933470;28;1259;-75
2022/09/04 07:22:31;;;;;;;;;;;;;;;;;;4948965;28;1632;-76
2022/09/04 07:25:02;;;;;;;;;;;;;;;;;;4931619;28;1107;-76
2022/09/04 07:27:35;;;;;;;;;;;;;;;;;;4933045;28;1469;-75
2022/09/04 07:30:01;;;;;;;;;;;;;;;;;;4933313;28;1966;-74
2022/09/04 07:32:28;;;;;;;;;;;;;;;;;;4932772;29;1366;-73
2022/09/04 07:34:55;;;;;;;;;;;;;;;;;;4950569;29;1024;-76
2022/09/04 07:37:26;;;;;;;;;;;;;;;;;;4950488;28;861;-75
2022/09/04 07:39:56;;;;;;;;;;;;;;;;;;4950392;29;1147;-75
2022/09/04 07:42:24;;;;;;;;;;;;;;;;;;4950182;28;1416;-76
2022/09/04 07:44:53;;;;;;;;;;;;;;;;;;4950783;29;894;-75
2022/09/04 07:47:20;;;;;;;;;;;;;;;;;;4950641;29;1171;-75
2022/09/04 07:49:52;;;;;;;;;;;;;;;;;;4950842;28;1915;-75
2022/09/04 07:52:23;;;;;;;;;;;;;;;;;;4932762;29;1433;-76
2022/09/04 07:55:03;;;;;;;;;;;;;;;;;;4950564;28;859;-75
2022/09/04 07:57:37;;;;;;;;;;;;;;;;;;4950153;29;874;-75
2022/09/04 08:00:06;;;;;;;;;;;;;;;;;;4950336;28;1370;-75
2022/09/04 08:02:45;;;;;;;;;;;;;;;;;;4949956;29;685;-75
2022/09/04 08:05:15;;;;;;;;;;;;;;;;;;4933128;28;1172;-74
2022/09/04 08:08:04;;;;;;;;;;;;;;;;;;4950189;29;1072;-75
2022/09/04 08:10:32;;;;;;;;;;;;;;;;;;4949918;28;1968;-74
2022/09/04 08:13:12;;;;;;;;;;;;;;;;;;4949937;28;1348;-76
2022/09/04 08:15:41;;;;;;;;;;;;;;;;;;4932974;29;1053;-75
2022/09/04 08:18:17;;;;;;;;;;;;;;;;;;4949977;29;1072;-75
2022/09/04 08:20:44;;;;;;;;;;;;;;;;;;4951455;28;1294;-75
2022/09/04 08:23:18;;;;;;;;;;;;;;;;;;4964695;28;1501;-75
2022/09/04 08:25:49;;;;;;;;;;;;;;;;;;4972552;28;887;-75
2022/09/04 08:28:20;;;;;;;;;;;;;;;;;;4955068;28;1209;-76
2022/09/04 08:30:49;;;;;;;;;;;;;;;;;;4972363;28;1973;-74
2022/09/04 08:33:22;;;;;;;;;;;;;;;;;;4971998;28;1080;-75
2022/09/04 08:35:51;;;;;;;;;;;;;;;;;;4972499;28;798;-75
2022/09/04 08:38:23;;;;;;;;;;;;;;;;;;4972183;28;949;-75
2022/09/04 08:41:08;;;;;;;;;;;;;;;;;;4972264;28;1349;-74
2022/09/04 08:43:38;;;;;;;;;;;;;;;;;;4971909;28;1064;-75
2022/09/04 08:46:12;;;;;;;;;;;;;;;;;;4972175;28;1108;-75
2022/09/04 08:49:08;;;;;;;;;;;;;;;;;;4972018;28;1080;-75
2022/09/04 08:51:42;;;;;;;;;;;;;;;;;;4976855;28;1979;-75
2022/09/04 08:54:14;;;;;;;;;;;;;;;;;;4972177;28;961;-75
2022/09/04 08:56:42;;;;;;;;;;;;;;;;;;4971886;28;1124;-75
2022/09/04 08:59:23;;;;;;;;;;;;;;;;;;4936674;28;1901;-75
2022/09/04 09:01:57;;;;;;;;;;;;;;;;;;4956054;28;1370;-74
2022/09/04 09:04:29;;;;;;;;;;;;;;;;;;4916466;28;1545;-75
2022/09/04 09:07:05;;;;;;;;;;;;;;;;;;4933858;28;1072;-76
2022/09/04 09:10:04;;;;;;;;;;;;;;;;;;4916429;29;1951;-75
2022/09/04 09:12:37;;;;;;;;;;;;;;;;;;4916025;29;1584;-76
2022/09/04 09:15:24;;;;;;;;;;;;;;;;;;4933434;29;1072;-75
2022/09/04 09:17:57;;;;;;;;;;;;;;;;;;4933428;28;1091;-75
2022/09/04 09:20:27;;;;;;;;;;;;;;;;;;4933382;28;1281;-75
2022/09/04 09:23:14;;;;;;;;;;;;;;;;;;4933002;29;1060;-76
2022/09/04 09:25:41;;;;;;;;;;;;;;;;;;4933295;29;953;-73
2022/09/04 09:28:28;;;;;;;;;;;;;;;;;;4916315;28;1164;-75
2022/09/04 09:31:07;;;;;;;;;;;;;;;;;;4933233;28;1911;-75
2022/09/04 09:33:48;;;;;;;;;;;;;;;;;;4932157;28;1131;-75
2022/09/04 09:36:31;;;;;;;;;;;;;;;;;;4936690;29;1520;-75
2022/09/04 09:39:00;;;;;;;;;;;;;;;;;;4931816;29;1158;-74
2022/09/04 09:41:31;;;;;;;;;;;;;;;;;;4932491;28;1369;-75
2022/09/04 09:44:03;;;;;;;;;;;;;;;;;;4933312;28;1088;-75
2022/09/04 09:46:47;;;;;;;;;;;;;;;;;;4932758;28;914;-75
2022/09/04 09:49:34;;;;;;;;;;;;;;;;;;4932957;29;1096;-75
2022/09/04 09:52:15;;;;;;;;;;;;;;;;;;4932623;28;1341;-75
2022/09/04 09:54:54;;;;;;;;;;;;;;;;;;4937306;29;1183;-75
2022/09/04 09:57:24;;;;;;;;;;;;;;;;;;4932913;28;1135;-75
2022/09/04 10:00:11;;;;;;;;;;;;;;;;;;4932780;29;1061;-74
2022/09/04 10:02:51;;;;;;;;;;;;;;;;;;4932346;29;1103;-74
2022/09/04 10:05:22;;;;;;;;;;;;;;;;;;4915516;29;1251;-75
2022/09/04 10:08:03;;;;;;;;;;;;;;;;;;4915727;28;1157;-73
2022/09/04 10:10:36;;;;;;;;;;;;;;;;;;4932298;29;1907;-75
2022/09/04 10:13:25;;;;;;;;;;;;;;;;;;4915637;28;831;-75
2022/09/04 10:16:06;;;;;;;;;;;;;;;;;;4932448;29;1060;-75
2022/09/04 10:18:51;;;;;;;;;;;;;;;;;;4940253;28;1212;-76
2022/09/04 10:21:42;;;;;;;;;;;;;;;;;;4932125;29;1381;-76
2022/09/04 10:24:29;;;;;;;;;;;;;;;;;;4915648;28;1224;-75
2022/09/04 10:27:00;;;;;;;;;;;;;;;;;;4932414;29;969;-76
2022/09/04 10:29:36;;;;;;;;;;;;;;;;;;4932360;29;1084;-75
2022/09/04 10:32:07;;;;;;;;;;;;;;;;;;4935165;28;1915;-74
2022/09/04 10:34:39;;;;;;;;;;;;;;;;;;4951328;28;1154;-75
2022/09/04 10:37:13;;;;;;;;;;;;;;;;;;4951451;29;1162;-75
2022/09/04 10:42:35;;;;;;;;;;;;;;;;;;4933464;28;1479;-75
2022/09/04 10:45:08;;;;;;;;;;;;;;;;;;4951288;29;1120;-75
2022/09/04 10:47:43;;;;;;;;;;;;;;;;;;4951104;28;724;-75
2022/09/04 10:50:24;;;;;;;;;;;;;;;;;;4951052;28;1915;-75
2022/09/04 10:53:04;;;;;;;;;;;;;;;;;;4950708;29;1119;-76
2022/09/04 10:55:46;;;;;;;;;;;;;;;;;;4950747;29;1114;-76
2022/09/04 10:58:26;;;;;;;;;;;;;;;;;;4933814;29;847;-76
2022/09/04 11:00:59;;;;;;;;;;;;;;;;;;4933670;29;1289;-76
2022/09/04 11:03:33;;;;;;;;;;;;;;;;;;4950660;29;799;-75
2022/09/04 11:06:09;;;;;;;;;;;;;;;;;;4950909;29;987;-75
2022/09/04 11:08:41;;;;;;;;;;;;;;;;;;4933699;29;1060;-75
2022/09/04 11:11:14;;;;;;;;;;;;;;;;;;4950449;28;1899;-75
2022/09/04 11:13:53;;;;;;;;;;;;;;;;;;4951264;29;1101;-75
2022/09/04 11:16:26;;;;;;;;;;;;;;;;;;4951403;29;1221;-75
2022/09/04 11:18:58;;;;;;;;;;;;;;;;;;4951168;29;929;-74
2022/09/04 11:21:31;;;;;;;;;;;;;;;;;;4950256;28;1379;-74
2022/09/04 11:24:10;;;;;;;;;;;;;;;;;;4950439;29;1127;-75
2022/09/04 11:27:00;;;;;;;;;;;;;;;;;;4950736;29;1119;-75
2022/09/04 11:29:39;;;;;;;;;;;;;;;;;;4950540;28;1068;-74
2022/09/04 11:32:11;;;;;;;;;;;;;;;;;;4949985;28;1919;-75
2022/09/04 11:34:49;;;;;;;;;;;;;;;;;;4950208;29;1612;-74
2022/09/04 11:37:23;;;;;;;;;;;;;;;;;;4950445;29;1119;-75
2022/09/04 11:40:04;;;;;;;;;;;;;;;;;;4950599;29;1063;-74
2022/09/04 11:42:38;;;;;;;;;;;;;;;;;;4949851;29;1546;-76
2022/09/04 11:45:15;;;;;;;;;;;;;;;;;;4950415;29;819;-75
2022/09/04 11:47:59;;;;;;;;;;;;;;;;;;4950165;29;1075;-75
2022/09/04 11:50:35;;;;;;;;;;;;;;;;;;4950119;28;1910;-75
2022/09/04 11:53:18;;;;;;;;;;;;;;;;;;4950072;28;1012;-74
2022/09/04 11:55:58;;;;;;;;;;;;;;;;;;4935471;28;1035;-75
2022/09/04 11:58:30;;;;;;;;;;;;;;;;;;4953739;29;1140;-75
2022/09/04 12:01:02;;;;;;;;;;;;;;;;;;4953172;28;1286;-75
2022/09/04 12:03:34;;;;;;;;;;;;;;;;;;4953159;29;1072;-75
2022/09/04 12:06:09;;;;;;;;;;;;;;;;;;4953490;29;898;-74
2022/09/04 12:08:39;;;;;;;;;;;;;;;;;;4953574;29;1143;-74
2022/09/04 12:11:31;;;;;;;;;;;;;;;;;;4953189;28;1910;-75
2022/09/04 12:14:10;;;;;;;;;;;;;;;;;;4953511;29;1076;-75
2022/09/04 12:16:46;;;;;;;;;;;;;;;;;;4953345;29;986;-75
2022/09/04 12:19:19;;;;;;;;;;;;;;;;;;4953404;29;1009;-75
2022/09/04 12:22:19;;;;;;;;;;;;;;;;;;4953206;28;1326;-74
2022/09/04 12:24:54;;;;;;;;;;;;;;;;;;4953613;29;1065;-75
2022/09/04 12:27:32;;;;;;;;;;;;;;;;;;4953255;29;1072;-76
2022/09/04 12:30:04;;;;;;;;;;;;;;;;;;4953376;29;795;-76
2022/09/04 12:32:38;;;;;;;;;;;;;;;;;;4935537;28;1974;-76
2022/09/04 12:35:23;;;;;;;;;;;;;;;;;;4953230;29;1092;-75
2022/09/04 12:37:58;;;;;;;;;;;;;;;;;;4972528;28;1300;-76
2022/09/04 12:40:34;;;;;;;;;;;;;;;;;;4952957;28;1393;-76
2022/09/04 12:43:03;;;;;;;;;;;;;;;;;;4935441;29;1108;-76
2022/09/04 12:45:31;;;;;;;;;;;;;;;;;;4952922;29;804;-76
2022/09/04 12:47:58;;;;;;;;;;;;;;;;;;4952865;29;1326;-76
2022/09/04 12:50:29;;;;;;;;;;;;;;;;;;4952841;28;1282;-76
2022/09/04 12:53:08;;;;;;;;;;;;;;;;;;4952572;29;2021;-76
2022/09/04 12:55:38;;;;;;;;;;;;;;;;;;4952726;28;1079;-76
2022/09/04 12:58:08;;;;;;;;;;;;;;;;;;4935830;28;1238;-77
2022/09/04 13:00:39;;;;;;;;;;;;;;;;;;4952515;28;1329;-76
2022/09/04 13:03:13;;;;;;;;;;;;;;;;;;4952392;29;1061;-75
2022/09/04 13:05:43;;;;;;;;;;;;;;;;;;4952849;28;968;-76
2022/09/04 13:08:18;;;;;;;;;;;;;;;;;;4951680;28;877;-75
2022/09/04 13:10:47;;;;;;;;;;;;;;;;;;4952825;28;1907;-76
2022/09/04 13:13:15;;;;;;;;;;;;;;;;;;4952358;28;836;-75
2022/09/04 13:15:44;;;;;;;;;;;;;;;;;;4952935;28;822;-76
2022/09/04 13:18:13;;;;;;;;;;;;;;;;;;4952537;28;1072;-75
2022/09/04 13:20:42;;;;;;;;;;;;;;;;;;4952723;28;1273;-76
2022/09/04 13:23:19;;;;;;;;;;;;;;;;;;4953961;28;977;-75
2022/09/04 13:25:51;;;;;;;;;;;;;;;;;;4953559;29;1143;-76
2022/09/04 13:28:22;;;;;;;;;;;;;;;;;;4952851;29;1265;-76
2022/09/04 13:30:51;;;;;;;;;;;;;;;;;;4952234;28;1915;-75
2022/09/04 13:33:23;;;;;;;;;;;;;;;;;;4952006;29;889;-76
2022/09/04 13:36:02;;;;;;;;;;;;;;;;;;4952177;29;1536;-76
2022/09/04 13:38:33;;;;;;;;;;;;;;;;;;4950169;29;1466;-75
2022/09/04 13:41:06;;;;;;;;;;;;;;;;;;4952073;29;1314;-76
2022/09/04 13:43:47;;;;;;;;;;;;;;;;;;4934620;29;1384;-76
2022/09/04 13:46:14;;;;;;;;;;;;;;;;;;4952125;29;1064;-75
2022/09/04 13:48:41;;;;;;;;;;;;;;;;;;4952021;29;949;-76
2022/09/04 13:51:08;;;;;;;;;;;;;;;;;;4951885;29;1911;-77
2022/09/04 13:53:35;;;;;;;;;;;;;;;;;;4951889;29;1108;-77
2022/09/04 13:56:04;;;;;;;;;;;;;;;;;;4951836;29;1147;-76
2022/09/04 13:58:32;;;;;;;;;;;;;;;;;;4951932;29;1049;-77
2022/09/04 14:01:00;;;;;;;;;;;;;;;;;;4951515;29;1300;-77
2022/09/04 14:03:30;;;;;;;;;;;;;;;;;;4951310;29;1033;-77
2022/09/04 14:05:56;;;;;;;;;;;;;;;;;;4951738;28;806;-77
2022/09/04 14:08:22;;;;;;;;;;;;;;;;;;4951584;29;1054;-77
2022/09/04 14:10:57;;;;;;;;;;;;;;;;;;4951359;29;1413;-77
2022/09/04 14:13:27;;;;;;;;;;;;;;;;;;4951302;29;1131;-76
2022/09/04 14:16:00;;;;;;;;;;;;;;;;;;4951782;29;800;-75
2022/09/04 14:18:33;;;;;;;;;;;;;;;;;;4933804;29;951;-77
2022/09/04 14:21:00;;;;;;;;;;;;;;;;;;4951518;29;1322;-76
2022/09/04 14:23:29;;;;;;;;;;;;;;;;;;4951160;29;931;-77
2022/09/04 14:25:56;;;;;;;;;;;;;;;;;;4951314;29;1124;-77
2022/09/04 14:28:23;;;;;;;;;;;;;;;;;;4951598;29;1081;-76
2022/09/04 14:30:53;;;;;;;;;;;;;;;;;;4951257;29;1326;-76
2022/09/04 14:33:22;;;;;;;;;;;;;;;;;;4950984;29;1980;-76
2022/09/04 14:35:54;;;;;;;;;;;;;;;;;;4951695;29;1163;-76
2022/09/04 14:38:31;;;;;;;;;;;;;;;;;;4951920;29;1103;-77
2022/09/04 14:41:00;;;;;;;;;;;;;;;;;;4951598;29;1293;-77
2022/09/04 14:43:31;;;;;;;;;;;;;;;;;;4934959;29;1369;-77
2022/09/04 14:46:06;;;;;;;;;;;;;;;;;;4952219;29;850;-77
2022/09/04 14:48:32;;;;;;;;;;;;;;;;;;4952221;29;945;-77
2022/09/04 14:51:13;;;;;;;;;;;;;;;;;;4951949;29;1282;-77
2022/09/04 14:53:39;;;;;;;;;;;;;;;;;;4951267;29;1095;-77
2022/09/04 14:56:11;;;;;;;;;;;;;;;;;;4951044;29;988;-76
2022/09/04 14:58:39;;;;;;;;;;;;;;;;;;4949565;28;1999;-77
2022/09/04 15:01:07;;;;;;;;;;;;;;;;;;4961398;28;1340;-77
2022/09/04 15:03:34;;;;;;;;;;;;;;;;;;4963918;28;1142;-77
2022/09/04 15:06:04;;;;;;;;;;;;;;;;;;4970145;28;1060;-77
2022/09/04 15:08:31;;;;;;;;;;;;;;;;;;4970018;28;1008;-77
2022/09/04 15:10:59;;;;;;;;;;;;;;;;;;4969817;28;1294;-77
2022/09/04 15:13:37;;;;;;;;;;;;;;;;;;4969771;28;1982;-77
2022/09/04 15:16:09;;;;;;;;;;;;;;;;;;4970131;28;965;-77
2022/09/04 15:18:36;;;;;;;;;;;;;;;;;;4969899;28;977;-77
2022/09/04 15:21:04;;;;;;;;;;;;;;;;;;4969764;28;1360;-77
2022/09/04 15:23:31;;;;;;;;;;;;;;;;;;4969738;28;989;-77
2022/09/04 15:26:00;;;;;;;;;;;;;;;;;;4969793;28;1081;-77
2022/09/04 15:28:28;;;;;;;;;;;;;;;;;;4969957;28;1100;-76
2022/09/04 15:31:00;;;;;;;;;;;;;;;;;;4968773;28;1419;-76
2022/09/04 15:33:26;;;;;;;;;;;;;;;;;;4963750;28;1972;-77
2022/09/04 15:36:04;;;;;;;;;;;;;;;;;;4950665;29;957;-77
2022/09/04 15:38:31;;;;;;;;;;;;;;;;;;4950535;29;989;-77
2022/09/04 15:41:01;;;;;;;;;;;;;;;;;;4950137;28;1333;-77
2022/09/04 15:43:28;;;;;;;;;;;;;;;;;;4950409;29;832;-77
2022/09/04 15:45:55;;;;;;;;;;;;;;;;;;4950682;29;707;-77
2022/09/04 15:48:24;;;;;;;;;;;;;;;;;;4950519;28;957;-76
2022/09/04 15:50:51;;;;;;;;;;;;;;;;;;4950053;28;1368;-75
2022/09/04 15:53:20;;;;;;;;;;;;;;;;;;4950174;29;1923;-76
2022/09/04 15:55:48;;;;;;;;;;;;;;;;;;4950189;28;1072;-75
2022/09/04 15:58:15;;;;;;;;;;;;;;;;;;4950280;29;1057;-76
2022/09/04 16:00:58;;;;;;;;;;;;;;;;;;4950225;28;1431;-76
2022/09/04 16:03:25;;;;;;;;;;;;;;;;;;4950051;29;897;-77
2022/09/04 16:05:53;;;;;;;;;;;;;;;;;;4950075;29;765;-76
2022/09/04 16:08:22;;;;;;;;;;;;;;;;;;4950113;29;851;-76
2022/09/04 16:10:53;;;;;;;;;;;;;;;;;;4949951;28;1402;-75
2022/09/04 16:13:29;;;;;;;;;;;;;;;;;;4949945;28;1923;-77
2022/09/04 16:15:58;;;;;;;;;;;;;;;;;;4949869;29;783;-76
2022/09/04 16:18:33;;;;;;;;;;;;;;;;;;4932896;28;879;-77
2022/09/04 16:20:59;;;;;;;;;;;;;;;;;;4949606;28;1318;-76
2022/09/04 16:23:27;;;;;;;;;;;;;;;;;;4949840;28;1080;-77
2022/09/04 16:25:57;;;;;;;;;;;;;;;;;;4949854;29;1036;-75
2022/09/04 16:28:25;;;;;;;;;;;;;;;;;;4949955;29;1064;-75
2022/09/04 16:30:54;;;;;;;;;;;;;;;;;;4932598;29;1283;-75
2022/09/04 16:33:21;;;;;;;;;;;;;;;;;;4949374;29;1915;-76
2022/09/04 16:35:48;;;;;;;;;;;;;;;;;;4949883;29;1673;-75
2022/09/04 16:38:15;;;;;;;;;;;;;;;;;;4950027;28;1091;-75
2022/09/04 16:40:42;;;;;;;;;;;;;;;;;;4949803;28;1328;-76
2022/09/04 16:43:14;;;;;;;;;;;;;;;;;;4952848;28;1074;-75
2022/09/04 16:45:44;;;;;;;;;;;;;;;;;;4953054;29;1126;-75
2022/09/04 16:48:14;;;;;;;;;;;;;;;;;;4952990;29;977;-76
2022/09/04 16:50:45;;;;;;;;;;;;;;;;;;4952922;28;1327;-75
2022/09/04 16:53:12;;;;;;;;;;;;;;;;;;4952613;29;1954;-76
2022/09/04 16:55:42;;;;;;;;;;;;;;;;;;4952984;29;1111;-76
2022/09/04 16:58:28;;;;;;;;;;;;;;;;;;4952958;29;901;-76
2022/09/04 17:00:57;;;;;;;;;;;;;;;;;;4952530;28;1361;-76
2022/09/04 17:03:25;;;;;;;;;;;;;;;;;;4952558;29;901;-75
2022/09/04 17:05:51;;;;;;;;;;;;;;;;;;4952765;29;1115;-76
2022/09/04 17:08:18;;;;;;;;;;;;;;;;;;4952896;29;966;-75
2022/09/04 17:10:45;;;;;;;;;;;;;;;;;;4952571;28;1404;-74
2022/09/04 17:13:15;;;;;;;;;;;;;;;;;;4952372;29;1915;-75
2022/09/04 17:15:45;;;;;;;;;;;;;;;;;;4952707;29;1044;-76
2022/09/04 17:18:11;;;;;;;;;;;;;;;;;;4952651;29;1123;-76
2022/09/04 17:20:39;;;;;;;;;;;;;;;;;;4952758;28;1314;-76
2022/09/04 17:23:09;;;;;;;;;;;;;;;;;;4935261;29;1052;-75
2022/09/04 17:25:38;;;;;;;;;;;;;;;;;;4935775;29;1042;-76
2022/09/04 17:28:16;;;;;;;;;;;;;;;;;;4952270;29;902;-75
2022/09/04 17:30:46;;;;;;;;;;;;;;;;;;4952444;28;1287;-75
2022/09/04 17:33:15;;;;;;;;;;;;;;;;;;4951803;29;1915;-75
2022/09/04 17:35:43;;;;;;;;;;;;;;;;;;4934973;28;1045;-75
2022/09/04 17:38:13;;;;;;;;;;;;;;;;;;4952462;29;1087;-75
2022/09/04 17:40:45;;;;;;;;;;;;;;;;;;4951955;28;1411;-75